createdAt,value
2023-05-08T04:14:27.559Z,100.00
2023-05-08T04:17:03.771Z,100.00
2023-05-08T04:19:38.196Z,100.00
2023-05-08T04:22:08.534Z,100.00
2023-05-08T04:24:49.198Z,100.00
2023-05-08T04:27:18.020Z,100.00
2023-05-08T04:29:45.652Z,100.00
2023-05-08T04:32:14.015Z,100.00
2023-05-08T04:34:41.606Z,100.00
2023-05-08T04:37:09.341Z,100.00
2023-05-08T04:39:36.943Z,100.00
2023-05-08T04:42:04.856Z,100.00
2023-05-08T04:44:34.423Z,100.00
2023-05-08T04:47:01.941Z,100.00
2023-05-08T04:49:29.391Z,100.00
2023-05-08T04:51:56.719Z,100.00
2023-05-08T04:54:24.009Z,100.00
2023-05-08T04:56:51.340Z,100.00
2023-05-08T04:59:19.872Z,100.00
2023-05-08T05:01:47.795Z,100.00
2023-05-08T05:04:15.141Z,100.00
2023-05-08T05:06:42.773Z,100.00
2023-05-08T05:09:11.683Z,100.00
2023-05-08T05:11:39.289Z,100.00
2023-05-08T05:14:07.472Z,100.00
2023-05-08T05:16:35.699Z,100.00
2023-05-08T05:19:03.515Z,100.00
2023-05-08T05:21:32.836Z,100.00
2023-05-08T05:24:00.331Z,100.00
2023-05-08T05:26:28.088Z,100.00
2023-05-08T05:28:55.633Z,100.00
2023-05-08T05:31:23.755Z,100.00
2023-05-08T05:33:51.767Z,100.00
2023-05-08T05:36:20.675Z,100.00
2023-05-08T05:38:48.272Z,100.00
2023-05-08T05:41:16.374Z,100.00
2023-05-08T05:43:43.662Z,100.00
2023-05-08T05:46:11.416Z,100.00
2023-05-08T05:48:40.608Z,100.00
2023-05-08T05:51:09.772Z,100.00
2023-05-08T05:53:37.613Z,100.00
2023-05-08T05:56:06.043Z,100.00
2023-05-08T05:58:35.486Z,100.00
2023-05-08T06:01:03.633Z,100.00
2023-05-08T06:03:32.500Z,100.00
2023-05-08T06:06:00.219Z,100.00
2023-05-08T06:08:27.849Z,100.00
2023-05-08T06:10:57.124Z,100.00
2023-05-08T06:13:24.693Z,100.00
2023-05-08T06:15:56.488Z,100.00
2023-05-08T06:18:24.866Z,100.00
2023-05-08T06:20:58.883Z,100.00
2023-05-08T06:23:27.074Z,100.00
2023-05-08T06:25:54.563Z,100.00
2023-05-08T06:28:23.988Z,100.00
2023-05-08T06:30:52.110Z,100.00
2023-05-08T06:33:20.047Z,100.00
2023-05-08T06:35:48.257Z,100.00
2023-05-08T06:38:16.606Z,100.00
2023-05-08T06:40:44.557Z,100.00
2023-05-08T06:43:13.174Z,100.00
2023-05-08T06:45:41.022Z,100.00
2023-05-08T06:48:08.909Z,100.00
2023-05-08T06:50:40.798Z,100.00
2023-05-08T06:53:08.551Z,100.00
2023-05-08T06:55:35.864Z,100.00
2023-05-08T06:58:04.038Z,100.00
2023-05-08T07:00:31.613Z,100.00
2023-05-08T07:02:59.909Z,100.00
2023-05-08T07:05:27.321Z,100.00
2023-05-08T07:07:55.124Z,100.00
2023-05-08T07:10:23.008Z,100.00
2023-05-08T07:12:50.739Z,100.00
2023-05-08T07:17:51.924Z,100.00
2023-05-08T07:20:20.348Z,100.00
2023-05-08T07:22:47.720Z,100.00
2023-05-08T07:25:16.070Z,100.00
2023-05-08T07:27:43.584Z,100.00
2023-05-08T07:30:11.624Z,100.00
2023-05-08T07:32:39.371Z,100.00
2023-05-08T07:35:11.084Z,100.00
2023-05-08T07:37:41.791Z,100.00
2023-05-08T07:40:09.388Z,100.00
2023-05-08T07:42:43.427Z,100.00
2023-05-08T07:45:13.028Z,100.00
2023-05-08T07:47:56.316Z,100.00
2023-05-08T07:50:25.065Z,100.00
2023-05-08T07:52:53.054Z,100.00
2023-05-08T07:55:21.764Z,100.00
2023-05-08T07:57:49.247Z,100.00
2023-05-08T08:00:17.299Z,100.00
2023-05-08T08:02:45.473Z,100.00
2023-05-08T08:05:13.976Z,100.00
2023-05-08T08:07:41.926Z,100.00
2023-05-08T08:10:09.337Z,100.00
2023-05-08T08:12:36.791Z,100.00
2023-05-08T08:15:05.163Z,100.00
2023-05-08T08:17:33.073Z,100.00
2023-05-08T08:20:00.955Z,100.00
2023-05-08T08:22:28.466Z,100.00
2023-05-08T08:24:56.460Z,100.00
2023-05-08T08:27:24.773Z,100.00
2023-05-08T08:29:58.586Z,100.00
2023-05-08T08:32:32.297Z,100.00
2023-05-08T08:34:59.980Z,100.00
2023-05-08T08:37:27.345Z,100.00
2023-05-08T08:39:55.103Z,100.00
2023-05-08T08:42:23.549Z,100.00
2023-05-08T08:44:51.245Z,100.00
2023-05-08T08:47:21.943Z,100.00
2023-05-08T08:49:51.188Z,100.00
2023-05-08T08:52:39.130Z,100.00
2023-05-08T08:55:10.539Z,100.00
2023-05-08T08:58:06.086Z,100.00
2023-05-08T09:00:37.230Z,100.00
2023-05-08T09:03:09.324Z,100.00
2023-05-08T09:05:37.580Z,100.00
2023-05-08T09:08:07.131Z,100.00
2023-05-08T09:10:34.958Z,100.00
2023-05-08T09:13:04.568Z,100.00
2023-05-08T09:15:33.293Z,100.00
2023-05-08T09:18:02.600Z,100.00
2023-05-08T09:20:30.513Z,100.00
2023-05-08T09:23:02.301Z,100.00
2023-05-08T09:25:47.218Z,100.00
2023-05-08T09:28:26.219Z,100.00
2023-05-08T09:30:58.289Z,100.00
2023-05-08T09:33:28.011Z,100.00
2023-05-08T09:35:57.393Z,100.00
2023-05-08T09:38:41.930Z,100.00
2023-05-08T09:41:15.489Z,100.00
2023-05-08T09:43:44.809Z,100.00
2023-05-08T09:46:26.252Z,100.00
2023-05-08T09:48:57.051Z,100.00
2023-05-08T09:51:26.561Z,100.00
2023-05-08T09:53:55.935Z,100.00
2023-05-08T09:56:34.146Z,100.00
2023-05-08T09:59:04.364Z,100.00
2023-05-08T10:01:35.614Z,100.00
2023-05-08T10:04:05.697Z,100.00
2023-05-08T10:06:33.839Z,100.00
2023-05-08T10:09:08.182Z,100.00
2023-05-08T10:11:36.370Z,100.00
2023-05-08T10:14:03.822Z,100.00
2023-05-08T10:16:36.674Z,100.00
2023-05-08T10:19:09.304Z,100.00
2023-05-08T10:21:38.121Z,100.00
2023-05-08T10:24:12.923Z,100.00
2023-05-08T10:26:57.167Z,100.00
2023-05-08T10:29:38.563Z,100.00
2023-05-08T10:32:12.184Z,100.00
2023-05-08T10:34:42.318Z,100.00
2023-05-08T10:37:11.446Z,100.00
2023-05-08T10:39:41.138Z,100.00
2023-05-08T10:42:09.079Z,100.00
2023-05-08T10:44:36.867Z,100.00
2023-05-08T10:47:21.759Z,100.00
2023-05-08T10:49:59.192Z,100.00
2023-05-08T10:52:36.079Z,100.00
2023-05-08T10:55:19.790Z,100.00
2023-05-08T10:58:06.907Z,100.00
2023-05-08T11:00:59.837Z,100.00
2023-05-08T11:03:33.068Z,100.00
2023-05-08T11:06:02.253Z,100.00
2023-05-08T11:08:31.658Z,100.00
2023-05-08T11:10:59.498Z,100.00
2023-05-08T11:13:35.373Z,100.00
2023-05-08T11:16:04.090Z,100.00
2023-05-08T11:18:45.866Z,100.00
2023-05-08T11:21:22.395Z,100.00
2023-05-08T11:23:58.834Z,100.00
2023-05-08T11:26:42.784Z,100.00
2023-05-08T11:29:17.902Z,100.00
2023-05-08T11:31:52.760Z,100.00
2023-05-08T11:34:41.958Z,100.00
2023-05-08T11:37:18.685Z,100.00
2023-05-08T11:39:47.098Z,100.00
2023-05-08T11:42:29.540Z,100.00
2023-05-08T11:45:07.746Z,100.00
2023-05-08T11:47:41.387Z,100.00
2023-05-08T11:50:10.578Z,100.00
2023-05-08T11:52:40.391Z,100.00
2023-05-08T11:55:15.899Z,100.00
2023-05-08T11:57:44.116Z,100.00
2023-05-08T12:00:12.795Z,100.00
2023-05-08T12:02:42.436Z,100.00
2023-05-08T12:05:11.238Z,100.00
2023-05-08T12:07:44.619Z,100.00
2023-05-08T12:10:16.638Z,100.00
2023-05-08T12:12:45.362Z,100.00
2023-05-08T12:15:15.063Z,100.00
2023-05-08T12:17:43.779Z,100.00
2023-05-08T12:20:19.085Z,100.00
2023-05-08T12:22:53.011Z,100.00
2023-05-08T12:25:20.967Z,100.00
2023-05-08T12:27:48.593Z,100.00
2023-05-08T12:30:16.798Z,100.00
2023-05-08T12:32:45.425Z,100.00
2023-05-08T12:35:14.850Z,100.00
2023-05-08T12:37:42.314Z,100.00
2023-05-08T12:40:25.432Z,99.96
2023-05-08T12:42:53.228Z,97.97
2023-05-08T12:45:29.737Z,97.49
2023-05-08T12:48:01.492Z,97.00
2023-05-08T12:50:33.613Z,95.11
2023-05-08T12:53:05.903Z,93.78
2023-05-08T12:55:36.346Z,90.13
2023-05-08T12:58:09.125Z,85.73
2023-05-08T13:00:42.236Z,86.94
2023-05-08T13:03:11.738Z,86.38
2023-05-08T13:05:44.376Z,85.77
2023-05-08T13:08:11.954Z,87.08
2023-05-08T13:10:55.127Z,84.64
2023-05-08T13:13:25.879Z,89.12
2023-05-08T13:15:55.742Z,86.54
2023-05-08T13:18:28.656Z,83.08
2023-05-08T13:20:56.770Z,83.55
2023-05-08T13:23:24.308Z,86.30
2023-05-08T13:25:52.586Z,83.02
2023-05-08T13:28:20.368Z,84.62
2023-05-08T13:30:47.648Z,84.99
2023-05-08T13:33:15.860Z,80.71
2023-05-08T13:35:43.319Z,78.69
2023-05-08T13:38:10.912Z,75.03
2023-05-08T13:40:38.287Z,74.66
2023-05-08T13:43:05.721Z,72.08
2023-05-08T13:45:33.221Z,72.40
2023-05-08T13:48:01.427Z,69.77
2023-05-08T13:50:29.148Z,68.41
2023-05-08T13:52:56.814Z,68.11
2023-05-08T13:55:24.311Z,64.28
2023-05-08T13:57:52.683Z,66.01
2023-05-08T14:00:20.891Z,64.67
2023-05-08T14:02:50.682Z,63.37
2023-05-08T14:05:18.318Z,62.11
2023-05-08T14:07:45.685Z,62.80
2023-05-08T14:10:13.759Z,63.51
2023-05-08T14:12:41.231Z,64.28
2023-05-08T14:15:09.800Z,63.67
2023-05-08T14:17:37.232Z,63.56
2023-05-08T14:20:05.176Z,62.32
2023-05-08T14:22:34.041Z,62.13
2023-05-08T14:25:01.958Z,63.96
2023-05-08T14:27:30.048Z,63.59
2023-05-08T14:29:58.033Z,61.48
2023-05-08T14:32:25.628Z,63.54
2023-05-08T14:34:52.950Z,59.64
2023-05-08T14:37:20.462Z,59.59
2023-05-08T14:39:48.015Z,57.71
2023-05-08T14:42:22.195Z,56.28
2023-05-08T14:44:51.699Z,47.93
2023-05-08T14:47:19.531Z,40.09
2023-05-08T14:49:46.844Z,44.60
2023-05-08T14:52:14.548Z,45.32
2023-05-08T14:54:42.064Z,43.18
2023-05-08T14:57:10.001Z,37.92
2023-05-08T14:59:41.693Z,35.87
2023-05-08T15:02:17.960Z,32.22
2023-05-08T15:04:46.087Z,30.22
2023-05-08T15:07:13.870Z,30.15
2023-05-08T15:09:41.327Z,30.04
2023-05-08T15:12:09.203Z,28.80
2023-05-08T15:14:37.048Z,28.68
2023-05-08T15:17:04.800Z,27.02
2023-05-08T15:19:32.497Z,28.30
2023-05-08T15:21:59.998Z,29.10
2023-05-08T15:24:28.154Z,30.09
2023-05-08T15:26:55.987Z,28.66
2023-05-08T15:29:23.427Z,27.92
2023-05-08T15:31:51.372Z,28.18
2023-05-08T15:34:18.788Z,28.00
2023-05-08T15:36:46.565Z,27.52
2023-05-08T15:39:14.100Z,24.98
2023-05-08T15:41:42.011Z,26.35
2023-05-08T15:44:09.840Z,26.22
2023-05-08T15:46:37.754Z,26.49
2023-05-08T15:49:06.021Z,26.94
2023-05-08T15:51:33.384Z,26.32
2023-05-08T15:54:01.378Z,27.37
2023-05-08T15:56:29.054Z,26.52
2023-05-08T15:58:56.840Z,28.62
2023-05-08T16:01:24.265Z,29.65
2023-05-08T16:03:51.692Z,26.83
2023-05-08T16:06:19.608Z,27.99
2023-05-08T16:08:47.045Z,29.13
2023-05-08T16:11:15.087Z,28.86
2023-05-08T16:13:43.183Z,28.52
2023-05-08T16:16:10.517Z,28.19
2023-05-08T16:18:37.931Z,27.74
2023-05-08T16:21:09.735Z,28.29
2023-05-08T16:23:37.718Z,28.56
2023-05-08T16:26:05.332Z,28.50
2023-05-08T16:28:33.489Z,28.89
2023-05-08T16:31:02.009Z,29.07
2023-05-08T16:33:30.467Z,29.86
2023-05-08T16:35:58.287Z,30.13
2023-05-08T16:38:25.629Z,30.48
2023-05-08T16:40:52.903Z,30.31
2023-05-08T16:43:20.315Z,30.17
2023-05-08T16:45:51.544Z,35.93
2023-05-08T16:48:18.952Z,40.79
2023-05-08T16:50:46.844Z,41.80
2023-05-08T16:53:15.519Z,37.68
2023-05-08T16:55:43.053Z,36.66
2023-05-08T16:58:11.232Z,35.98
2023-05-08T17:00:38.981Z,34.25
2023-05-08T17:03:06.763Z,34.22
2023-05-08T17:05:35.606Z,33.25
2023-05-08T17:08:02.950Z,34.18
2023-05-08T17:10:30.964Z,35.63
2023-05-08T17:12:58.712Z,35.33
2023-05-08T17:15:27.305Z,36.62
2023-05-08T17:17:55.925Z,42.81
2023-05-08T17:20:23.425Z,47.44
2023-05-08T17:22:53.108Z,48.85
2023-05-08T17:25:22.440Z,51.44
2023-05-08T17:27:49.872Z,53.03
2023-05-08T17:30:17.667Z,55.34
2023-05-08T17:32:46.268Z,56.54
2023-05-08T17:35:13.562Z,58.47
2023-05-08T17:37:41.748Z,59.85
2023-05-08T17:40:10.021Z,61.58
2023-05-08T17:42:37.378Z,62.77
2023-05-08T17:45:05.745Z,63.31
2023-05-08T17:47:33.405Z,64.75
2023-05-08T17:50:00.764Z,65.71
2023-05-08T17:52:28.032Z,66.75
2023-05-08T17:54:55.446Z,67.67
2023-05-08T17:57:23.631Z,68.54
2023-05-08T17:59:51.243Z,69.35
2023-05-08T18:02:19.590Z,69.98
2023-05-08T18:04:47.322Z,69.84
2023-05-08T18:07:14.615Z,70.85
2023-05-08T18:09:41.919Z,71.88
2023-05-08T18:12:09.192Z,72.76
2023-05-08T18:14:37.007Z,72.96
2023-05-08T18:17:05.858Z,73.41
2023-05-08T18:19:33.569Z,75.83
2023-05-08T18:22:01.395Z,75.65
2023-05-08T18:24:29.792Z,74.80
2023-05-08T18:26:57.568Z,76.29
2023-05-08T18:29:25.662Z,76.17
2023-05-08T18:31:53.091Z,75.95
2023-05-08T18:34:20.654Z,76.07
2023-05-08T18:36:50.412Z,75.81
2023-05-08T18:39:17.784Z,76.59
2023-05-08T18:41:45.548Z,78.59
2023-05-08T18:44:13.625Z,76.92
2023-05-08T18:46:41.359Z,78.15
2023-05-08T18:49:09.430Z,78.35
2023-05-08T18:51:37.004Z,78.97
2023-05-08T18:54:04.402Z,78.44
2023-05-08T18:56:34.275Z,78.11
2023-05-08T18:59:01.745Z,78.56
2023-05-08T19:01:29.320Z,77.74
2023-05-08T19:03:56.796Z,78.50
2023-05-08T19:06:24.714Z,78.92
2023-05-08T19:08:52.489Z,79.16
2023-05-08T19:11:20.035Z,78.27
2023-05-08T19:13:49.937Z,78.09
2023-05-08T19:16:18.070Z,77.78
2023-05-08T19:18:45.862Z,78.26
2023-05-08T19:21:13.284Z,77.46
2023-05-08T19:23:40.734Z,77.26
2023-05-08T19:26:09.093Z,78.51
2023-05-08T19:28:36.893Z,79.00
2023-05-08T19:31:05.206Z,80.42
2023-05-08T19:33:32.594Z,80.53
2023-05-08T19:36:00.453Z,82.86
2023-05-08T19:38:28.584Z,82.25
2023-05-08T19:40:57.661Z,82.48
2023-05-08T19:43:26.409Z,83.97
2023-05-08T19:45:56.016Z,85.25
2023-05-08T19:48:23.747Z,85.49
2023-05-08T19:50:54.593Z,87.57
2023-05-08T19:53:23.396Z,88.15
2023-05-08T19:55:51.505Z,90.71
2023-05-08T19:58:19.590Z,92.76
2023-05-08T20:03:18.625Z,95.37
2023-05-08T20:05:45.967Z,97.56
2023-05-08T20:08:14.413Z,98.74
2023-05-08T20:10:42.346Z,100.00
2023-05-08T20:13:10.321Z,100.00
2023-05-08T20:15:37.692Z,100.00
2023-05-08T20:18:05.735Z,100.00
2023-05-08T20:20:34.787Z,100.00
2023-05-08T20:23:03.004Z,100.00
2023-05-08T20:25:30.844Z,100.00
2023-05-08T20:27:59.243Z,100.00
2023-05-08T20:30:27.133Z,100.00
2023-05-08T20:32:55.692Z,100.00
2023-05-08T20:35:23.480Z,100.00
2023-05-08T20:37:51.543Z,100.00
2023-05-08T20:40:19.831Z,100.00
2023-05-08T20:42:47.127Z,100.00
2023-05-08T20:45:15.595Z,100.00
2023-05-08T20:47:44.502Z,100.00
2023-05-08T20:50:12.771Z,100.00
2023-05-08T20:52:42.581Z,100.00
2023-05-08T20:57:37.829Z,100.00
2023-05-08T21:00:06.248Z,100.00
2023-05-08T21:05:02.135Z,100.00
2023-05-08T21:07:29.480Z,100.00
2023-05-08T21:09:57.063Z,100.00
2023-05-08T21:12:26.658Z,100.00
2023-05-08T21:14:53.911Z,100.00
2023-05-08T21:17:21.303Z,100.00
2023-05-08T21:19:49.687Z,100.00
2023-05-08T21:22:20.133Z,100.00
2023-05-08T21:24:47.357Z,100.00
2023-05-08T21:27:15.303Z,100.00
2023-05-08T21:29:46.839Z,100.00
2023-05-08T21:32:15.444Z,100.00
2023-05-08T21:34:43.340Z,100.00
2023-05-08T21:37:11.126Z,100.00
2023-05-08T21:39:41.930Z,100.00
2023-05-08T21:42:12.556Z,100.00
2023-05-08T21:44:40.164Z,100.00
2023-05-08T21:47:07.905Z,100.00
2023-05-08T21:49:35.364Z,100.00
2023-05-08T21:52:03.357Z,100.00
2023-05-08T21:54:30.764Z,100.00
2023-05-08T21:56:58.888Z,100.00
2023-05-08T21:59:26.218Z,100.00
2023-05-08T22:01:53.545Z,100.00
2023-05-08T22:04:20.952Z,100.00
2023-05-08T22:06:48.235Z,100.00
2023-05-08T22:09:16.062Z,100.00
2023-05-08T22:11:43.320Z,100.00
2023-05-08T22:14:10.612Z,100.00
2023-05-08T22:16:38.221Z,100.00
2023-05-08T22:19:05.894Z,100.00
2023-05-08T22:21:33.380Z,100.00
2023-05-08T22:24:03.695Z,100.00
2023-05-08T22:26:31.234Z,100.00
2023-05-08T22:28:59.574Z,100.00
2023-05-08T22:31:27.034Z,100.00
2023-05-08T22:33:54.586Z,100.00
2023-05-08T22:36:23.866Z,100.00
2023-05-08T22:38:52.226Z,100.00
2023-05-08T22:41:19.492Z,100.00
2023-05-08T22:43:47.142Z,100.00
2023-05-08T22:46:14.640Z,100.00
2023-05-08T22:48:42.107Z,100.00
2023-05-08T22:51:10.311Z,100.00
2023-05-08T22:53:37.653Z,100.00
2023-05-08T22:56:05.537Z,100.00
2023-05-08T22:58:32.922Z,100.00
2023-05-08T23:01:00.792Z,100.00
2023-05-08T23:03:28.550Z,100.00
2023-05-08T23:05:55.914Z,100.00
2023-05-08T23:08:23.861Z,100.00
2023-05-08T23:10:51.565Z,100.00
2023-05-08T23:13:18.998Z,100.00
2023-05-08T23:15:47.149Z,100.00
2023-05-08T23:18:14.481Z,100.00
2023-05-08T23:20:41.869Z,100.00
2023-05-08T23:23:09.540Z,100.00
2023-05-08T23:25:36.784Z,100.00
2023-05-08T23:28:04.227Z,100.00
2023-05-08T23:30:32.436Z,100.00
2023-05-08T23:33:00.636Z,100.00
2023-05-08T23:35:28.318Z,100.00
2023-05-08T23:37:55.958Z,100.00
2023-05-08T23:40:23.416Z,100.00
2023-05-08T23:42:52.016Z,100.00
2023-05-08T23:45:19.311Z,100.00
2023-05-08T23:47:46.796Z,100.00
2023-05-08T23:50:14.116Z,100.00
2023-05-08T23:52:41.720Z,100.00
2023-05-08T23:55:10.017Z,100.00
2023-05-08T23:57:37.834Z,100.00
